• Join FlightAware (Why Join?)
  • Login
  • US Flag 
05:59PM EDT


 

Airport Tracker/Info


-or-


 

Live Flight TrackerFlight Track Log ✈ UAL258 ✈ 13-May-2013 ✈ KLAS - KSFO

Flight Track Log - Related Links

Times and Time Zones

All times are in EDT time to prevent confusion due to time zone crossing. See the UAL258 flight status page for this flight to view local times or setup timezone preferences in your user account.

Time Position Orientation Groundspeed Altitude Reporting Facility
EDT Latitude Longitude Course Direction KTS MPH feet Rate Location/Type
02:19PM 36.0747 -115.1714 274° West 163 188 3,200  Level Los Angeles Center
02:20PM 36.0767 -115.2106 274° West 181 208 4,000 1,260 Climbing Los Angeles Center
02:21PM 36.0625 -115.2589 250° West 225 259 5,000 1,680 Climbing Los Angeles Center
02:21PM 36.0339 -115.2725 201° Southwest 239 275 5,900 1,620 Climbing Los Angeles Center
02:22PM 35.9956 -115.2886 199° South 247 284 6,700 1,140 Climbing Los Angeles Center
02:22PM 35.9656 -115.3056 205° Southwest 273 314 7,100 1,920 Climbing Los Angeles Center
02:23PM 35.9325 -115.3481 226° Southwest 271 312 8,700 2,400 Climbing Los Angeles Center
02:23PM 35.9072 -115.3750 221° Southwest 286 329 9,600 2,880 Climbing Los Angeles Center
02:24PM 35.8856 -115.4217 240° Southwest 280 322 11,700 2,520 Climbing Los Angeles Center
02:25PM 35.8881 -115.5181 272° West 281 323 14,000 1,740 Climbing Los Angeles Center
02:26PM 35.8886 -115.6411 270° West 314 361 15,400 1,200 Climbing Los Angeles Center
02:27PM 35.8911 -115.7758 271° West 367 422 16,600 1,080 Climbing Los Angeles Center
02:28PM 35.8953 -115.9167 272° West 411 473 17,700 1,200 Climbing Los Angeles Center
02:29PM 35.9592 -116.0458 301° West 436 502 19,100 1,080 Climbing Los Angeles Center
02:30PM 36.0492 -116.1481 317° Northwest 441 507 20,000 420 Climbing Los Angeles Center
02:31PM 36.1300 -116.2383 318° Northwest 449 517 20,000  Level Los Angeles Center
02:32PM 36.2406 -116.3656 317° Northwest 453 521 20,000  Level Los Angeles Center
02:33PM 36.3331 -116.4758 316° Northwest 459 528 20,000  Level Los Angeles Center
02:34PM 36.4256 -116.5825 317° Northwest 458 527 20,000  Level Los Angeles Center
02:35PM 36.5178 -116.6892 317° Northwest 455 524 20,000  Level Los Angeles Center
02:36PM 36.6386 -116.8031 323° Northwest 461 531 20,000  Level Los Angeles Center
02:37PM 36.7478 -116.8867 328° Northwest 460 529 20,000  Level Los Angeles Center
02:38PM 36.8586 -116.9711 329° Northwest 462 532 20,000  Level Los Angeles Center
02:39PM 36.9681 -117.0556 328° Northwest 462 532 20,000  Level Oakland Center
02:40PM 37.0772 -117.1400 328° Northwest 460 529 20,000  Level Oakland Center
02:41PM 37.1878 -117.2250 329° Northwest 462 532 20,000  Level Oakland Center
02:42PM 37.2978 -117.3092 329° Northwest 462 532 20,000  Level Oakland Center
02:43PM 37.4061 -117.3956 328° Northwest 462 532 20,000  Level Oakland Center
02:44PM 37.4256 -117.5519 279° West 459 528 20,000  Level Oakland Center
02:45PM 37.4375 -117.7083 276° West 452 520 20,000  Level Oakland Center
02:46PM 37.4486 -117.8664 275° West 451 519 20,000  Level Oakland Center
02:47PM 37.4583 -118.0228 275° West 448 516 20,000  Level Oakland Center
02:48PM 37.4736 -118.2150 276° West 454 522 20,000  Level Oakland Center
02:49PM 37.4831 -118.3728 274° West 453 521 20,000  Level Oakland Center
02:50PM 37.4939 -118.5308 275° West 453 521 20,000  Level Oakland Center
02:51PM 37.5044 -118.6856 275° West 449 517 20,000 -60 Level Oakland Center
02:52PM 37.5133 -118.8428 274° West 450 518 19,900 -60 Descending Oakland Center
02:54PM 37.5239 -119.0006 275° West 453 521 19,900  Level Oakland Center
02:55PM 37.5331 -119.1575 274° West 457 526 19,900  Level Oakland Center
02:56PM 37.5422 -119.3131 274° West 443 510 19,900  Level Oakland Center
02:57PM 37.5519 -119.4833 274° West 445 512 20,000  Climbing Oakland Center
02:58PM 37.5614 -119.6547 274° West 446 513 20,000  Level Oakland Center
02:59PM 37.5883 -119.8031 283° West 442 509 20,000  Level Oakland Center
03:00PM 37.6692 -119.9031 316° Northwest 405 466 20,000  Level Oakland Center
03:01PM 37.6722 -120.0361 272° West 389 448 20,000  Level Oakland Center
03:02PM 37.6669 -120.1742 267° West 391 450 20,000  Level Oakland Center
03:03PM 37.6606 -120.3114 267° West 393 452 20,000  Level Oakland Center
03:04PM 37.6533 -120.4503 266° West 395 455 20,000  Level Oakland Center
03:05PM 37.6467 -120.5869 267° West 392 451 20,000  Level Oakland Center
03:05PM 37.6500 -120.6833 273° West 390 449 20,000  Level Northern Cal TRACON
03:06PM 37.6333 -120.8333 262° West 394 453 20,000 -600 Level Northern Cal TRACON
03:07PM 37.6333 -120.9500 270° West 389 448 18,900 -1,800 Descending Northern Cal TRACON
03:08PM 37.6167 -121.1000 262° West 379 436 16,400 -2,340 Descending Northern Cal TRACON
03:09PM 37.6000 -121.2167 260° West 370 426 14,000 -1,800 Descending Northern Cal TRACON
03:10PM 37.5833 -121.3333 260° West 349 402 12,800 -960 Descending Northern Cal TRACON
03:11PM 37.5667 -121.4500 260° West 300 345 12,100 -960 Descending Northern Cal TRACON
03:12PM 37.5667 -121.5333 270° West 279 321 11,000 -540 Descending Northern Cal TRACON
03:13PM 37.5500 -121.6167 256° West 234 269 11,100 -60 Climbing Northern Cal TRACON
03:14PM 37.5500 -121.7000 270° West 240 276 10,900 -840 Descending Northern Cal TRACON
03:15PM 37.5000 -121.7333 208° Southwest 227 261 9,600 -1,080 Descending Northern Cal TRACON
03:16PM 37.4667 -121.7833 230° Southwest 227 261 8,800 -780 Descending Northern Cal TRACON
03:17PM 37.4833 -121.8500 288° West 213 245 8,000 -540 Descending Northern Cal TRACON
03:18PM 37.4833 -121.9333 270° West 207 238 7,800 -780 Descending Northern Cal TRACON
03:19PM 37.5000 -121.9833 293° West 202 232 6,600 -1,200 Descending Northern Cal TRACON
03:20PM 37.5167 -122.0667 284° West 195 224 5,400 -1,320 Descending Northern Cal TRACON
03:21PM 37.5500 -122.1167 310° West 186 214 3,900 -1,500 Descending Northern Cal TRACON
03:22PM 37.5556 -122.1600 279° West 183 211 2,800 -1,140 Descending Oakland Center
03:23PM 37.5706 -122.2125 290° West 172 198 1,900 -660 Descending Oakland Center
03:24PM 37.5847 -122.2606 290° West 159 183 1,500 -420 Descending Oakland Center